Trout Creek, Montana
Current Conditions -  °F | °C
As of 5:53 AM on Tuesday 21 Oct 2014 (Local Time) from KMLP Reporting Station
Light Rain Light Rain  
Wind Chill: 31°   Ceiling: 100
Heat Index: 37°   Visibility: 0.5mi
Dew Point: 37°   Wind: 8mph
Humidity: 100%   Direction: 320°NW
Pressure: 29.84"   Gusts: NA
Location:  47.83°N, 115.61°W
Report Text: KMLP 211153Z AUTO 32007KT 1/2SM -RA FG VV001 03/03 A2984 RMK AO2 RAB31 SLP046 P0001 60001 70001 T00280028 10050 20022 58004
Loading
Personal Weather Stations






























Interactive Weather Map
Tropical Storm Tracking
New forecast layout! Learn more

10-Day Weather Forecast

Advertisements
Track Severe Weather on mobile